TAM8049 SACO-SBGR
Flight info
| Callsign | TAM8049 |
|---|---|
| Flight time | N/A |
| Altitude | 35000 |
| Route | TREJO1G TREJO UL531 FOZ UM548 KAMIL UZ28 XONUG |
| Aircraft | A320/M-SDE3FGHIRWY/LB1 |
Departure
| Time | 2026-05-07 19:14 |
|---|---|
| Airport | Ingeniero Aeronáutico Ambrosio L.V. Taravella International Airport (SACO) |
Arrival
| Time | N/A |
|---|---|
| Airport | São Paulo/Guarulhos–Governor André Franco Montoro International Airport (SBGR) |
| Time | Latitude | Longitude | Altitude | Speed | Heading |
|---|---|---|---|---|---|
| 2026-05-07 18:40 | -31.31612 | -64.21169 | 1613 ft | 0 kts | 269° |
| 2026-05-07 18:43 | -31.31612 | -64.21168 | 1613 ft | 0 kts | 269° |
| 2026-05-07 18:55 | -31.31612 | -64.21167 | 1613 ft | 0 kts | 269° |
| 2026-05-07 19:02 | -31.31612 | -64.21165 | 1621 ft | 2 kts | 269° |
| 2026-05-07 19:02 | -31.31612 | -64.21135 | 1616 ft | 4 kts | 281° |
| 2026-05-07 19:03 | -31.31622 | -64.21109 | 1622 ft | 4 kts | 326° |
| 2026-05-07 19:03 | -31.31641 | -64.21101 | 1622 ft | 1 kts | 360° |
| 2026-05-07 19:03 | -31.31644 | -64.21101 | 1621 ft | 2 kts | 360° |
| 2026-05-07 19:06 | -31.31645 | -64.21101 | 1621 ft | 0 kts | 360° |
| 2026-05-07 19:08 | -31.31635 | -64.21101 | 1622 ft | 2 kts | 360° |
| 2026-05-07 19:08 | -31.31611 | -64.21102 | 1618 ft | 4 kts | 360° |
| 2026-05-07 19:08 | -31.31574 | -64.21101 | 1618 ft | 6 kts | 5° |
| 2026-05-07 19:08 | -31.31532 | -64.21079 | 1620 ft | 8 kts | 19° |
| 2026-05-07 19:09 | -31.31479 | -64.21051 | 1618 ft | 9 kts | 40° |
| 2026-05-07 19:09 | -31.31465 | -64.20985 | 1613 ft | 9 kts | 92° |
| 2026-05-07 19:09 | -31.31468 | -64.20910 | 1614 ft | 9 kts | 91° |
| 2026-05-07 19:09 | -31.31442 | -64.20844 | 1616 ft | 11 kts | 34° |
| 2026-05-07 19:10 | -31.31332 | -64.20827 | 1618 ft | 19 kts | 359° |
| 2026-05-07 19:10 | -31.31198 | -64.20830 | 1615 ft | 20 kts | 359° |
| 2026-05-07 19:10 | -31.31055 | -64.20832 | 1615 ft | 21 kts | 359° |
| 2026-05-07 19:10 | -31.30906 | -64.20834 | 1620 ft | 22 kts | 359° |
| 2026-05-07 19:11 | -31.30753 | -64.20837 | 1619 ft | 22 kts | 359° |
| 2026-05-07 19:11 | -31.30597 | -64.20839 | 1614 ft | 23 kts | 359° |
| 2026-05-07 19:11 | -31.30437 | -64.20841 | 1619 ft | 23 kts | 359° |
| 2026-05-07 19:11 | -31.30278 | -64.20844 | 1616 ft | 23 kts | 359° |
| 2026-05-07 19:12 | -31.30114 | -64.20848 | 1619 ft | 24 kts | 359° |
| 2026-05-07 19:12 | -31.29945 | -64.20852 | 1622 ft | 25 kts | 358° |
| 2026-05-07 19:12 | -31.29773 | -64.20855 | 1617 ft | 24 kts | 0° |
| 2026-05-07 19:12 | -31.29652 | -64.20884 | 1614 ft | 15 kts | 332° |
| 2026-05-07 19:13 | -31.29600 | -64.20862 | 1615 ft | 7 kts | 131° |
| 2026-05-07 19:13 | -31.29624 | -64.20856 | 1615 ft | 15 kts | 175° |
| 2026-05-07 19:13 | -31.29960 | -64.20852 | 1616 ft | 79 kts | 179° |
| 2026-05-07 19:13 | -31.30688 | -64.20841 | 1616 ft | 128 kts | 179° |
| 2026-05-07 19:14 | -31.31710 | -64.20836 | 1712 ft | 157 kts | 180° |
| 2026-05-07 19:14 | -31.32770 | -64.20805 | 2365 ft | 150 kts | 181° |
| 2026-05-07 19:14 | -31.33829 | -64.20722 | 2797 ft | 161 kts | 177° |
| 2026-05-07 19:14 | -31.34908 | -64.20132 | 2998 ft | 193 kts | 137° |
| 2026-05-07 19:15 | -31.35383 | -64.18549 | 3196 ft | 230 kts | 93° |
| 2026-05-07 19:15 | -31.34836 | -64.16701 | 3520 ft | 253 kts | 60° |
| 2026-05-07 19:15 | -31.33722 | -64.14992 | 3884 ft | 271 kts | 50° |
| 2026-05-07 19:15 | -31.32442 | -64.13362 | 4615 ft | 272 kts | 49° |
| 2026-05-07 19:16 | -31.31151 | -64.11724 | 5277 ft | 276 kts | 49° |
| 2026-05-07 19:16 | -31.29881 | -64.10027 | 5944 ft | 278 kts | 51° |
| 2026-05-07 19:16 | -31.28646 | -64.08280 | 6630 ft | 280 kts | 52° |
| 2026-05-07 19:16 | -31.27427 | -64.06479 | 7252 ft | 285 kts | 53° |
| 2026-05-07 19:17 | -31.26209 | -64.04638 | 7908 ft | 288 kts | 53° |
| 2026-05-07 19:17 | -31.24974 | -64.02747 | 8449 ft | 296 kts | 53° |
| 2026-05-07 19:17 | -31.23732 | -64.00834 | 9039 ft | 302 kts | 53° |
| 2026-05-07 19:17 | -31.22460 | -63.98863 | 9653 ft | 306 kts | 53° |
| 2026-05-07 19:18 | -31.21170 | -63.96864 | 10212 ft | 310 kts | 53° |
| 2026-05-07 19:18 | -31.19863 | -63.94844 | 10796 ft | 312 kts | 53° |
| 2026-05-07 19:18 | -31.18549 | -63.92816 | 11392 ft | 314 kts | 53° |
| 2026-05-07 19:18 | -31.17224 | -63.90772 | 11985 ft | 316 kts | 53° |
| 2026-05-07 19:19 | -31.15889 | -63.88719 | 12570 ft | 318 kts | 53° |
| 2026-05-07 19:19 | -31.14542 | -63.86656 | 13142 ft | 321 kts | 53° |
| 2026-05-07 19:19 | -31.13185 | -63.84578 | 13704 ft | 323 kts | 53° |
| 2026-05-07 19:19 | -31.11821 | -63.82490 | 14188 ft | 325 kts | 53° |
| 2026-05-07 19:20 | -31.10446 | -63.80387 | 14699 ft | 327 kts | 53° |
| 2026-05-07 19:20 | -31.09065 | -63.78275 | 15202 ft | 328 kts | 52° |
| 2026-05-07 19:20 | -31.07677 | -63.76154 | 15705 ft | 330 kts | 52° |
| 2026-05-07 19:20 | -31.06283 | -63.74025 | 16212 ft | 331 kts | 52° |
| 2026-05-07 19:21 | -31.04878 | -63.71884 | 16703 ft | 333 kts | 52° |
| 2026-05-07 19:21 | -31.03469 | -63.69738 | 17190 ft | 334 kts | 52° |
| 2026-05-07 19:21 | -31.02053 | -63.67578 | 17669 ft | 336 kts | 51° |
| 2026-05-07 19:21 | -31.00633 | -63.65404 | 18152 ft | 338 kts | 51° |
| 2026-05-07 19:22 | -30.99208 | -63.63220 | 18547 ft | 340 kts | 52° |
| 2026-05-07 19:22 | -30.97773 | -63.61024 | 18925 ft | 342 kts | 52° |
| 2026-05-07 19:22 | -30.96319 | -63.58805 | 19309 ft | 345 kts | 52° |
| 2026-05-07 19:22 | -30.94857 | -63.56579 | 19685 ft | 347 kts | 52° |
| 2026-05-07 19:23 | -30.93381 | -63.54332 | 20061 ft | 350 kts | 52° |
| 2026-05-07 19:23 | -30.91918 | -63.52102 | 20413 ft | 353 kts | 52° |
| 2026-05-07 19:23 | -30.90377 | -63.49760 | 20570 ft | 366 kts | 52° |
| 2026-05-07 19:23 | -30.88798 | -63.47365 | 20716 ft | 380 kts | 52° |
| 2026-05-07 19:24 | -30.87161 | -63.44883 | 20832 ft | 392 kts | 52° |
| 2026-05-07 19:24 | -30.85498 | -63.42362 | 20975 ft | 405 kts | 51° |
| 2026-05-07 19:24 | -30.83758 | -63.39723 | 21110 ft | 417 kts | 51° |
| 2026-05-07 19:24 | -30.81967 | -63.37005 | 21261 ft | 429 kts | 51° |
| 2026-05-07 19:25 | -30.80134 | -63.34224 | 21535 ft | 438 kts | 51° |
| 2026-05-07 19:25 | -30.78258 | -63.31384 | 21644 ft | 449 kts | 51° |
| 2026-05-07 19:25 | -30.76331 | -63.28471 | 21776 ft | 459 kts | 51° |
| 2026-05-07 19:25 | -30.74364 | -63.25501 | 21909 ft | 468 kts | 51° |
| 2026-05-07 19:26 | -30.72359 | -63.22472 | 22041 ft | 476 kts | 51° |
| 2026-05-07 19:26 | -30.70327 | -63.19399 | 22175 ft | 483 kts | 51° |
| 2026-05-07 19:26 | -30.68263 | -63.16282 | 22311 ft | 490 kts | 51° |
| 2026-05-07 19:26 | -30.66176 | -63.13137 | 22565 ft | 492 kts | 51° |
| 2026-05-07 19:27 | -30.64090 | -63.10000 | 23133 ft | 487 kts | 49° |
| 2026-05-07 19:27 | -30.62038 | -63.06907 | 23747 ft | 481 kts | 49° |
| 2026-05-07 19:27 | -30.60006 | -63.03842 | 24181 ft | 478 kts | 49° |
| 2026-05-07 19:27 | -30.57974 | -63.00787 | 24573 ft | 477 kts | 48° |
| 2026-05-07 19:28 | -30.55941 | -62.97744 | 24956 ft | 477 kts | 49° |
| 2026-05-07 19:28 | -30.53906 | -62.94705 | 25320 ft | 477 kts | 49° |
| 2026-05-07 19:28 | -30.51872 | -62.91663 | 25703 ft | 476 kts | 49° |
| 2026-05-07 19:28 | -30.49847 | -62.88628 | 26096 ft | 476 kts | 49° |
| 2026-05-07 19:29 | -30.47820 | -62.85593 | 26490 ft | 476 kts | 49° |
| 2026-05-07 19:29 | -30.45823 | -62.82603 | 26865 ft | 475 kts | 49° |
| 2026-05-07 19:29 | -30.43818 | -62.79595 | 27546 ft | 466 kts | 46° |
| 2026-05-07 19:29 | -30.41854 | -62.76648 | 28234 ft | 459 kts | 46° |
| 2026-05-07 19:30 | -30.39902 | -62.73732 | 28705 ft | 457 kts | 46° |
| 2026-05-07 19:30 | -30.37945 | -62.70816 | 29044 ft | 459 kts | 46° |
| 2026-05-07 19:30 | -30.35978 | -62.67896 | 29409 ft | 460 kts | 47° |
| 2026-05-07 19:30 | -30.34032 | -62.64949 | 29807 ft | 461 kts | 47° |
| 2026-05-07 19:31 | -30.32115 | -62.61970 | 30173 ft | 461 kts | 48° |
| 2026-05-07 19:31 | -30.30216 | -62.58976 | 30472 ft | 462 kts | 49° |
| 2026-05-07 19:31 | -30.28317 | -62.55967 | 30782 ft | 463 kts | 49° |
| 2026-05-07 19:31 | -30.26414 | -62.52959 | 31085 ft | 464 kts | 49° |
| 2026-05-07 19:32 | -30.24507 | -62.49962 | 31459 ft | 461 kts | 47° |
| 2026-05-07 19:32 | -30.22603 | -62.46987 | 31866 ft | 460 kts | 47° |
| 2026-05-07 19:32 | -30.20691 | -62.44021 | 32196 ft | 460 kts | 47° |
| 2026-05-07 19:32 | -30.18775 | -62.41056 | 32502 ft | 461 kts | 47° |
| 2026-05-07 19:33 | -30.16854 | -62.38085 | 32806 ft | 462 kts | 47° |
| 2026-05-07 19:33 | -30.14928 | -62.35107 | 33108 ft | 463 kts | 48° |
| 2026-05-07 19:33 | -30.12997 | -62.32116 | 33408 ft | 464 kts | 48° |
| 2026-05-07 19:33 | -30.11065 | -62.29125 | 33698 ft | 465 kts | 48° |
| 2026-05-07 19:34 | -30.09155 | -62.26170 | 33945 ft | 466 kts | 48° |
| 2026-05-07 19:34 | -30.07211 | -62.23163 | 34184 ft | 466 kts | 48° |
| 2026-05-07 19:34 | -30.05272 | -62.20164 | 34476 ft | 464 kts | 47° |
| 2026-05-07 19:34 | -30.03345 | -62.17184 | 34768 ft | 463 kts | 47° |
| 2026-05-07 19:35 | -29.99478 | -62.11211 | 34862 ft | 469 kts | 47° |
| 2026-05-07 19:35 | -29.95514 | -62.05115 | 34876 ft | 481 kts | 47° |
| 2026-05-07 19:36 | -29.91452 | -61.98867 | 34872 ft | 491 kts | 47° |
| 2026-05-07 19:36 | -29.87329 | -61.92586 | 34871 ft | 490 kts | 43° |
| 2026-05-07 19:37 | -29.82744 | -61.86889 | 34870 ft | 482 kts | 40° |
| 2026-05-07 19:37 | -29.78159 | -61.81258 | 34871 ft | 482 kts | 40° |
| 2026-05-07 19:38 | -29.73604 | -61.75668 | 34873 ft | 482 kts | 40° |
| 2026-05-07 19:38 | -29.69017 | -61.70042 | 34876 ft | 482 kts | 40° |
| 2026-05-07 19:39 | -29.64425 | -61.64425 | 34878 ft | 482 kts | 40° |
| 2026-05-07 19:39 | -29.60577 | -61.59720 | 34863 ft | 482 kts | 39° |
| 2026-05-07 19:40 | -29.55249 | -61.53204 | 34871 ft | 481 kts | 39° |
| 2026-05-07 19:40 | -29.51428 | -61.48546 | 34875 ft | 481 kts | 39° |
| 2026-05-07 19:41 | -29.46054 | -61.42020 | 34877 ft | 481 kts | 39° |
| 2026-05-07 19:41 | -29.42232 | -61.37383 | 34876 ft | 481 kts | 39° |
| 2026-05-07 19:42 | -29.37645 | -61.31804 | 34852 ft | 479 kts | 39° |
| 2026-05-07 19:42 | -29.33088 | -61.26272 | 34889 ft | 476 kts | 38° |
| 2026-05-07 19:43 | -29.28548 | -61.20784 | 34858 ft | 473 kts | 38° |
| 2026-05-07 19:43 | -29.24031 | -61.15328 | 34874 ft | 471 kts | 38° |
| 2026-05-07 19:44 | -29.19528 | -61.09882 | 34883 ft | 470 kts | 38° |
| 2026-05-07 19:44 | -29.15020 | -61.04457 | 34872 ft | 470 kts | 38° |
| 2026-05-07 19:45 | -29.10533 | -60.99060 | 34872 ft | 467 kts | 37° |
| 2026-05-07 19:45 | -29.06049 | -60.93715 | 34873 ft | 464 kts | 37° |
| 2026-05-07 19:46 | -29.01561 | -60.88424 | 34873 ft | 463 kts | 36° |
| 2026-05-07 19:46 | -28.97076 | -60.83151 | 34867 ft | 462 kts | 36° |
| 2026-05-07 19:47 | -28.92625 | -60.77928 | 34809 ft | 462 kts | 36° |
| 2026-05-07 19:47 | -28.88152 | -60.72675 | 34830 ft | 461 kts | 36° |
| 2026-05-07 19:48 | -28.83682 | -60.67416 | 34843 ft | 462 kts | 36° |
| 2026-05-07 19:48 | -28.79213 | -60.62158 | 34843 ft | 461 kts | 36° |
| 2026-05-07 19:49 | -28.74752 | -60.56898 | 34843 ft | 461 kts | 36° |
| 2026-05-07 19:49 | -28.70313 | -60.51607 | 34842 ft | 461 kts | 36° |
| 2026-05-07 19:50 | -28.65875 | -60.46330 | 34843 ft | 461 kts | 36° |
| 2026-05-07 19:50 | -28.61430 | -60.41059 | 34802 ft | 461 kts | 36° |
| 2026-05-07 19:51 | -28.56991 | -60.35793 | 34756 ft | 462 kts | 35° |
| 2026-05-07 19:51 | -28.52505 | -60.30497 | 34820 ft | 466 kts | 35° |
| 2026-05-07 19:52 | -28.48001 | -60.25183 | 34827 ft | 467 kts | 35° |
| 2026-05-07 19:52 | -28.43498 | -60.19862 | 34830 ft | 467 kts | 35° |
| 2026-05-07 19:53 | -28.39002 | -60.14529 | 34786 ft | 470 kts | 38° |
| 2026-05-07 19:53 | -28.37108 | -60.11422 | 34791 ft | 492 kts | 54° |
| 2026-05-07 19:53 | -28.35822 | -60.07813 | 34804 ft | 501 kts | 60° |
| 2026-05-07 19:54 | -28.33457 | -60.00354 | 34811 ft | 503 kts | 61° |
| 2026-05-07 19:54 | -28.31122 | -59.92852 | 34810 ft | 504 kts | 61° |
| 2026-05-07 19:55 | -28.28765 | -59.85361 | 34797 ft | 504 kts | 61° |
| 2026-05-07 19:55 | -28.26384 | -59.77882 | 34804 ft | 504 kts | 61° |
| 2026-05-07 19:56 | -28.23966 | -59.70419 | 34811 ft | 502 kts | 59° |
| 2026-05-07 19:56 | -28.21263 | -59.63157 | 34816 ft | 498 kts | 56° |
| 2026-05-07 19:57 | -28.18389 | -59.56013 | 34777 ft | 497 kts | 56° |
| 2026-05-07 19:57 | -28.15561 | -59.48877 | 34808 ft | 497 kts | 57° |
| 2026-05-07 19:58 | -28.12812 | -59.41730 | 34811 ft | 497 kts | 58° |
| 2026-05-07 19:58 | -28.10076 | -59.34543 | 34811 ft | 497 kts | 57° |
| 2026-05-07 19:59 | -28.07319 | -59.27380 | 34789 ft | 495 kts | 57° |
| 2026-05-07 19:59 | -28.04547 | -59.20244 | 34809 ft | 495 kts | 57° |
| 2026-05-07 20:00 | -28.01775 | -59.13117 | 34764 ft | 494 kts | 57° |
| 2026-05-07 20:00 | -27.99016 | -59.05995 | 34782 ft | 495 kts | 57° |
| 2026-05-07 20:01 | -27.96239 | -58.98872 | 34775 ft | 493 kts | 56° |
| 2026-05-07 20:01 | -27.93464 | -58.91776 | 34802 ft | 492 kts | 56° |
| 2026-05-07 20:02 | -27.90693 | -58.84702 | 34808 ft | 491 kts | 56° |
| 2026-05-07 20:02 | -27.87938 | -58.77647 | 34803 ft | 490 kts | 56° |
| 2026-05-07 20:03 | -27.85179 | -58.70600 | 34806 ft | 490 kts | 56° |
| 2026-05-07 20:03 | -27.82415 | -58.63579 | 34790 ft | 489 kts | 56° |
| 2026-05-07 20:04 | -27.79654 | -58.56559 | 34783 ft | 489 kts | 56° |
| 2026-05-07 20:04 | -27.76888 | -58.49532 | 34781 ft | 489 kts | 56° |
| 2026-05-07 20:05 | -27.74140 | -58.42579 | 34756 ft | 487 kts | 56° |
| 2026-05-07 20:05 | -27.73209 | -58.40223 | 34764 ft | 487 kts | 56° |